sensor_id;sensor_type;location;lat;lon;timestamp;P1;durP1;ratioP1;P2;durP2;ratioP2
60060;SDS011;45933;51.336;12.612;2022-10-22T00:01:03;7.90;;;5.95;;
60060;SDS011;45933;51.336;12.612;2022-10-22T00:03:29;8.10;;;6.40;;
60060;SDS011;45933;51.336;12.612;2022-10-22T00:05:54;8.50;;;6.22;;
60060;SDS011;45933;51.336;12.612;2022-10-22T00:08:19;6.93;;;6.13;;
60060;SDS011;45933;51.336;12.612;2022-10-22T00:10:45;7.47;;;6.45;;
60060;SDS011;45933;51.336;12.612;2022-10-22T00:13:10;9.73;;;6.50;;
60060;SDS011;45933;51.336;12.612;2022-10-22T00:15:36;9.50;;;7.00;;
60060;SDS011;45933;51.336;12.612;2022-10-22T00:18:01;8.73;;;6.32;;
60060;SDS011;45933;51.336;12.612;2022-10-22T00:20:27;9.93;;;6.70;;
60060;SDS011;45933;51.336;12.612;2022-10-22T00:22:52;8.90;;;6.65;;
60060;SDS011;45933;51.336;12.612;2022-10-22T00:25:17;11.90;;;6.30;;
60060;SDS011;45933;51.336;12.612;2022-10-22T00:27:43;6.97;;;6.07;;
60060;SDS011;45933;51.336;12.612;2022-10-22T00:30:08;9.30;;;7.13;;
60060;SDS011;45933;51.336;12.612;2022-10-22T00:32:34;12.15;;;6.80;;
60060;SDS011;45933;51.336;12.612;2022-10-22T00:34:59;7.53;;;6.20;;
60060;SDS011;45933;51.336;12.612;2022-10-22T00:37:25;9.05;;;6.22;;
60060;SDS011;45933;51.336;12.612;2022-10-22T00:39:50;8.63;;;6.78;;
60060;SDS011;45933;51.336;12.612;2022-10-22T00:42:19;10.77;;;6.88;;
60060;SDS011;45933;51.336;12.612;2022-10-22T00:47:30;11.48;;;6.80;;
60060;SDS011;45933;51.336;12.612;2022-10-22T00:49:59;7.35;;;6.05;;
60060;SDS011;45933;51.336;12.612;2022-10-22T00:52:26;9.23;;;6.60;;
60060;SDS011;45933;51.336;12.612;2022-10-22T00:54:52;12.23;;;6.90;;
60060;SDS011;45933;51.336;12.612;2022-10-22T00:57:18;9.13;;;6.50;;
60060;SDS011;45933;51.336;12.612;2022-10-22T00:59:45;9.20;;;6.20;;
60060;SDS011;45933;51.336;12.612;2022-10-22T01:02:11;10.50;;;7.13;;
60060;SDS011;45933;51.336;12.612;2022-10-22T01:04:36;7.85;;;6.13;;
60060;SDS011;45933;51.336;12.612;2022-10-22T01:07:02;9.95;;;5.95;;
60060;SDS011;45933;51.336;12.612;2022-10-22T01:12:07;8.02;;;6.22;;
60060;SDS011;45933;51.336;12.612;2022-10-22T01:20:12;9.07;;;6.63;;
60060;SDS011;45933;51.336;12.612;2022-10-22T01:26:32;10.90;;;6.55;;
60060;SDS011;45933;51.336;12.612;2022-10-22T01:32:17;7.78;;;6.18;;
60060;SDS011;45933;51.336;12.612;2022-10-22T01:34:47;10.15;;;6.05;;
60060;SDS011;45933;51.336;12.612;2022-10-22T01:37:20;8.45;;;6.28;;
60060;SDS011;45933;51.336;12.612;2022-10-22T01:39:48;9.32;;;6.45;;
60060;SDS011;45933;51.336;12.612;2022-10-22T01:42:15;10.95;;;6.35;;
60060;SDS011;45933;51.336;12.612;2022-10-22T01:44:41;10.20;;;6.45;;
60060;SDS011;45933;51.336;12.612;2022-10-22T01:58:37;8.95;;;6.80;;
60060;SDS011;45933;51.336;12.612;2022-10-22T02:01:07;8.73;;;6.45;;
60060;SDS011;45933;51.336;12.612;2022-10-22T02:03:50;10.50;;;6.65;;
60060;SDS011;45933;51.336;12.612;2022-10-22T02:06:24;10.60;;;6.53;;
60060;SDS011;45933;51.336;12.612;2022-10-22T02:08:51;10.50;;;6.68;;
60060;SDS011;45933;51.336;12.612;2022-10-22T02:11:18;8.55;;;6.80;;
60060;SDS011;45933;51.336;12.612;2022-10-22T02:13:46;8.63;;;6.15;;
60060;SDS011;45933;51.336;12.612;2022-10-22T02:16:16;7.22;;;6.05;;
60060;SDS011;45933;51.336;12.612;2022-10-22T02:18:48;9.13;;;6.43;;
60060;SDS011;45933;51.336;12.612;2022-10-22T02:21:17;10.40;;;5.97;;
60060;SDS011;45933;51.336;12.612;2022-10-22T02:23:43;10.60;;;6.82;;
60060;SDS011;45933;51.336;12.612;2022-10-22T02:26:14;9.32;;;6.55;;
60060;SDS011;45933;51.336;12.612;2022-10-22T02:31:31;7.22;;;6.18;;
60060;SDS011;45933;51.336;12.612;2022-10-22T02:34:02;7.57;;;6.15;;
60060;SDS011;45933;51.336;12.612;2022-10-22T02:36:34;10.80;;;6.55;;
60060;SDS011;45933;51.336;12.612;2022-10-22T02:39:02;9.48;;;6.70;;
60060;SDS011;45933;51.336;12.612;2022-10-22T02:41:29;12.68;;;6.32;;
60060;SDS011;45933;51.336;12.612;2022-10-22T02:43:55;8.40;;;6.53;;
60060;SDS011;45933;51.336;12.612;2022-10-22T02:46:21;9.30;;;6.30;;
60060;SDS011;45933;51.336;12.612;2022-10-22T02:48:47;10.90;;;6.50;;
60060;SDS011;45933;51.336;12.612;2022-10-22T02:51:13;10.18;;;6.90;;
60060;SDS011;45933;51.336;12.612;2022-10-22T02:53:38;9.98;;;7.35;;
60060;SDS011;45933;51.336;12.612;2022-10-22T02:56:03;8.77;;;6.97;;
60060;SDS011;45933;51.336;12.612;2022-10-22T02:58:29;9.75;;;7.13;;
60060;SDS011;45933;51.336;12.612;2022-10-22T03:00:54;9.95;;;6.40;;
60060;SDS011;45933;51.336;12.612;2022-10-22T03:03:20;11.40;;;7.30;;
60060;SDS011;45933;51.336;12.612;2022-10-22T03:05:45;10.35;;;7.47;;
60060;SDS011;45933;51.336;12.612;2022-10-22T03:08:10;9.38;;;6.88;;
60060;SDS011;45933;51.336;12.612;2022-10-22T03:10:36;10.77;;;6.90;;
60060;SDS011;45933;51.336;12.612;2022-10-22T03:13:01;11.18;;;7.40;;
60060;SDS011;45933;51.336;12.612;2022-10-22T03:15:26;11.57;;;7.50;;
60060;SDS011;45933;51.336;12.612;2022-10-22T03:17:52;10.57;;;6.47;;
60060;SDS011;45933;51.336;12.612;2022-10-22T03:20:17;10.80;;;6.95;;
60060;SDS011;45933;51.336;12.612;2022-10-22T03:22:42;9.80;;;6.40;;
60060;SDS011;45933;51.336;12.612;2022-10-22T03:25:09;8.57;;;6.43;;
60060;SDS011;45933;51.336;12.612;2022-10-22T03:27:38;8.32;;;6.50;;
60060;SDS011;45933;51.336;12.612;2022-10-22T03:30:05;11.48;;;7.35;;
60060;SDS011;45933;51.336;12.612;2022-10-22T03:32:32;9.25;;;6.72;;
60060;SDS011;45933;51.336;12.612;2022-10-22T03:34:57;9.18;;;6.55;;
60060;SDS011;45933;51.336;12.612;2022-10-22T03:37:22;12.45;;;7.55;;
60060;SDS011;45933;51.336;12.612;2022-10-22T03:39:50;10.35;;;6.97;;
60060;SDS011;45933;51.336;12.612;2022-10-22T03:42:16;11.25;;;7.72;;
60060;SDS011;45933;51.336;12.612;2022-10-22T03:44:42;10.88;;;7.40;;
60060;SDS011;45933;51.336;12.612;2022-10-22T03:47:07;11.68;;;7.68;;
60060;SDS011;45933;51.336;12.612;2022-10-22T03:49:33;8.55;;;6.97;;
60060;SDS011;45933;51.336;12.612;2022-10-22T03:52:04;9.88;;;7.65;;
60060;SDS011;45933;51.336;12.612;2022-10-22T03:54:37;10.88;;;7.07;;
60060;SDS011;45933;51.336;12.612;2022-10-22T03:57:03;12.88;;;8.43;;
60060;SDS011;45933;51.336;12.612;2022-10-22T03:59:33;11.07;;;8.60;;
60060;SDS011;45933;51.336;12.612;2022-10-22T04:02:06;13.80;;;7.70;;
60060;SDS011;45933;51.336;12.612;2022-10-22T04:04:31;9.93;;;7.63;;
60060;SDS011;45933;51.336;12.612;2022-10-22T04:06:57;10.32;;;8.18;;
60060;SDS011;45933;51.336;12.612;2022-10-22T04:09:22;12.35;;;7.43;;
60060;SDS011;45933;51.336;12.612;2022-10-22T04:11:48;8.90;;;7.07;;
60060;SDS011;45933;51.336;12.612;2022-10-22T04:14:13;9.57;;;7.43;;
60060;SDS011;45933;51.336;12.612;2022-10-22T04:16:39;9.27;;;7.65;;
60060;SDS011;45933;51.336;12.612;2022-10-22T04:19:05;9.90;;;7.25;;
60060;SDS011;45933;51.336;12.612;2022-10-22T04:21:31;10.63;;;7.72;;
60060;SDS011;45933;51.336;12.612;2022-10-22T04:23:56;9.35;;;7.32;;
60060;SDS011;45933;51.336;12.612;2022-10-22T04:26:22;12.52;;;7.88;;
60060;SDS011;45933;51.336;12.612;2022-10-22T04:28:48;9.88;;;7.57;;
60060;SDS011;45933;51.336;12.612;2022-10-22T04:31:22;11.15;;;7.60;;
60060;SDS011;45933;51.336;12.612;2022-10-22T04:33:55;12.07;;;7.78;;
60060;SDS011;45933;51.336;12.612;2022-10-22T04:36:22;10.55;;;7.78;;
60060;SDS011;45933;51.336;12.612;2022-10-22T04:38:52;11.20;;;7.00;;
60060;SDS011;45933;51.336;12.612;2022-10-22T04:41:23;9.30;;;7.18;;
60060;SDS011;45933;51.336;12.612;2022-10-22T04:43:52;8.70;;;6.93;;
60060;SDS011;45933;51.336;12.612;2022-10-22T04:46:19;9.57;;;7.13;;
60060;SDS011;45933;51.336;12.612;2022-10-22T04:48:44;10.95;;;7.65;;
60060;SDS011;45933;51.336;12.612;2022-10-22T04:51:11;11.18;;;7.78;;
60060;SDS011;45933;51.336;12.612;2022-10-22T04:53:38;9.88;;;8.18;;
60060;SDS011;45933;51.336;12.612;2022-10-22T04:56:13;14.40;;;8.85;;
60060;SDS011;45933;51.336;12.612;2022-10-22T04:58:47;8.95;;;7.88;;
60060;SDS011;45933;51.336;12.612;2022-10-22T05:01:15;11.85;;;8.25;;
60060;SDS011;45933;51.336;12.612;2022-10-22T05:03:45;10.95;;;7.53;;
60060;SDS011;45933;51.336;12.612;2022-10-22T05:06:12;11.75;;;7.97;;
60060;SDS011;45933;51.336;12.612;2022-10-22T05:08:38;10.10;;;7.30;;
60060;SDS011;45933;51.336;12.612;2022-10-22T05:11:14;12.70;;;7.85;;
60060;SDS011;45933;51.336;12.612;2022-10-22T05:13:49;9.20;;;6.78;;
60060;SDS011;45933;51.336;12.612;2022-10-22T05:16:15;10.57;;;7.57;;
60060;SDS011;45933;51.336;12.612;2022-10-22T05:18:42;9.75;;;7.22;;
60060;SDS011;45933;51.336;12.612;2022-10-22T05:21:12;10.45;;;7.55;;
60060;SDS011;45933;51.336;12.612;2022-10-22T05:23:39;10.15;;;7.22;;
60060;SDS011;45933;51.336;12.612;2022-10-22T05:26:06;10.40;;;7.40;;
60060;SDS011;45933;51.336;12.612;2022-10-22T05:28:34;10.82;;;7.32;;
60060;SDS011;45933;51.336;12.612;2022-10-22T05:31:00;8.77;;;6.93;;
60060;SDS011;45933;51.336;12.612;2022-10-22T05:33:26;8.70;;;7.05;;
60060;SDS011;45933;51.336;12.612;2022-10-22T05:35:53;12.07;;;7.80;;
60060;SDS011;45933;51.336;12.612;2022-10-22T05:38:18;11.32;;;7.35;;
60060;SDS011;45933;51.336;12.612;2022-10-22T05:40:44;13.05;;;7.85;;
60060;SDS011;45933;51.336;12.612;2022-10-22T05:43:09;10.30;;;7.57;;
60060;SDS011;45933;51.336;12.612;2022-10-22T05:45:36;10.20;;;7.50;;
60060;SDS011;45933;51.336;12.612;2022-10-22T05:48:02;8.77;;;7.22;;
60060;SDS011;45933;51.336;12.612;2022-10-22T05:50:28;9.95;;;7.97;;
60060;SDS011;45933;51.336;12.612;2022-10-22T05:52:54;14.50;;;8.07;;
60060;SDS011;45933;51.336;12.612;2022-10-22T05:55:19;8.88;;;6.95;;
60060;SDS011;45933;51.336;12.612;2022-10-22T05:57:47;9.60;;;7.60;;
60060;SDS011;45933;51.336;12.612;2022-10-22T06:00:14;10.13;;;7.97;;
60060;SDS011;45933;51.336;12.612;2022-10-22T06:02:40;27.35;;;24.45;;
60060;SDS011;45933;51.336;12.612;2022-10-22T06:05:05;13.43;;;11.82;;
60060;SDS011;45933;51.336;12.612;2022-10-22T06:07:31;13.45;;;9.52;;
60060;SDS011;45933;51.336;12.612;2022-10-22T06:09:57;12.30;;;7.80;;
60060;SDS011;45933;51.336;12.612;2022-10-22T06:12:23;12.80;;;7.97;;
60060;SDS011;45933;51.336;12.612;2022-10-22T06:14:49;13.23;;;7.90;;
60060;SDS011;45933;51.336;12.612;2022-10-22T06:17:14;15.13;;;8.20;;
60060;SDS011;45933;51.336;12.612;2022-10-22T06:19:39;8.88;;;7.15;;
60060;SDS011;45933;51.336;12.612;2022-10-22T06:22:06;9.27;;;7.45;;
60060;SDS011;45933;51.336;12.612;2022-10-22T06:24:31;14.23;;;7.55;;
60060;SDS011;45933;51.336;12.612;2022-10-22T06:26:56;10.48;;;6.85;;
60060;SDS011;45933;51.336;12.612;2022-10-22T06:29:21;7.85;;;6.75;;
60060;SDS011;45933;51.336;12.612;2022-10-22T06:31:47;16.38;;;7.45;;
60060;SDS011;45933;51.336;12.612;2022-10-22T06:34:13;10.00;;;7.63;;
60060;SDS011;45933;51.336;12.612;2022-10-22T06:36:39;8.77;;;6.93;;
60060;SDS011;45933;51.336;12.612;2022-10-22T06:39:06;8.65;;;6.00;;
60060;SDS011;45933;51.336;12.612;2022-10-22T06:41:35;10.70;;;7.35;;
60060;SDS011;45933;51.336;12.612;2022-10-22T06:44:01;12.32;;;6.80;;
60060;SDS011;45933;51.336;12.612;2022-10-22T06:46:26;8.38;;;6.28;;
60060;SDS011;45933;51.336;12.612;2022-10-22T06:48:53;8.27;;;6.65;;
60060;SDS011;45933;51.336;12.612;2022-10-22T06:51:20;7.75;;;6.18;;
60060;SDS011;45933;51.336;12.612;2022-10-22T06:53:46;9.38;;;6.07;;
60060;SDS011;45933;51.336;12.612;2022-10-22T06:56:16;9.25;;;6.72;;
60060;SDS011;45933;51.336;12.612;2022-10-22T06:58:45;9.38;;;6.45;;
60060;SDS011;45933;51.336;12.612;2022-10-22T07:01:12;9.77;;;6.70;;
60060;SDS011;45933;51.336;12.612;2022-10-22T07:03:39;11.32;;;6.60;;
60060;SDS011;45933;51.336;12.612;2022-10-22T07:06:06;9.10;;;6.13;;
60060;SDS011;45933;51.336;12.612;2022-10-22T07:08:34;8.25;;;5.72;;
60060;SDS011;45933;51.336;12.612;2022-10-22T07:11:11;8.95;;;5.65;;
60060;SDS011;45933;51.336;12.612;2022-10-22T07:13:41;9.38;;;6.15;;
60060;SDS011;45933;51.336;12.612;2022-10-22T07:16:07;10.27;;;6.22;;
60060;SDS011;45933;51.336;12.612;2022-10-22T07:18:33;9.57;;;6.47;;
60060;SDS011;45933;51.336;12.612;2022-10-22T07:21:01;10.25;;;6.43;;
60060;SDS011;45933;51.336;12.612;2022-10-22T07:23:27;9.13;;;6.70;;
60060;SDS011;45933;51.336;12.612;2022-10-22T07:25:53;7.75;;;6.43;;
60060;SDS011;45933;51.336;12.612;2022-10-22T07:28:18;8.27;;;6.70;;
60060;SDS011;45933;51.336;12.612;2022-10-22T07:30:44;10.38;;;6.75;;
60060;SDS011;45933;51.336;12.612;2022-10-22T07:33:10;9.63;;;7.07;;
60060;SDS011;45933;51.336;12.612;2022-10-22T07:35:36;10.77;;;7.05;;
60060;SDS011;45933;51.336;12.612;2022-10-22T07:38:03;16.27;;;6.93;;
60060;SDS011;45933;51.336;12.612;2022-10-22T07:40:29;7.78;;;6.97;;
60060;SDS011;45933;51.336;12.612;2022-10-22T07:42:54;6.85;;;6.20;;
60060;SDS011;45933;51.336;12.612;2022-10-22T07:45:20;6.70;;;5.97;;
60060;SDS011;45933;51.336;12.612;2022-10-22T07:47:46;8.93;;;6.10;;
60060;SDS011;45933;51.336;12.612;2022-10-22T07:50:12;9.55;;;6.45;;
60060;SDS011;45933;51.336;12.612;2022-10-22T07:52:37;9.13;;;6.50;;
60060;SDS011;45933;51.336;12.612;2022-10-22T07:55:03;7.55;;;5.63;;
60060;SDS011;45933;51.336;12.612;2022-10-22T07:57:28;9.82;;;6.05;;
60060;SDS011;45933;51.336;12.612;2022-10-22T07:59:54;7.40;;;5.47;;
60060;SDS011;45933;51.336;12.612;2022-10-22T08:02:21;6.07;;;4.93;;
60060;SDS011;45933;51.336;12.612;2022-10-22T08:04:46;6.88;;;4.93;;
60060;SDS011;45933;51.336;12.612;2022-10-22T08:07:11;7.65;;;4.90;;
60060;SDS011;45933;51.336;12.612;2022-10-22T08:09:37;6.70;;;4.40;;
60060;SDS011;45933;51.336;12.612;2022-10-22T08:12:02;6.25;;;4.22;;
60060;SDS011;45933;51.336;12.612;2022-10-22T08:14:27;4.50;;;3.90;;
60060;SDS011;45933;51.336;12.612;2022-10-22T08:16:53;6.30;;;3.55;;
60060;SDS011;45933;51.336;12.612;2022-10-22T08:19:18;8.38;;;3.78;;
60060;SDS011;45933;51.336;12.612;2022-10-22T08:21:45;3.35;;;2.90;;
60060;SDS011;45933;51.336;12.612;2022-10-22T08:24:11;8.38;;;3.88;;
60060;SDS011;45933;51.336;12.612;2022-10-22T08:26:37;4.55;;;2.90;;
60060;SDS011;45933;51.336;12.612;2022-10-22T08:29:03;2.50;;;2.20;;
60060;SDS011;45933;51.336;12.612;2022-10-22T08:31:29;5.72;;;2.22;;
60060;SDS011;45933;51.336;12.612;2022-10-22T08:33:54;3.72;;;2.38;;
60060;SDS011;45933;51.336;12.612;2022-10-22T08:36:19;4.45;;;2.42;;
60060;SDS011;45933;51.336;12.612;2022-10-22T08:38:45;6.50;;;1.90;;
60060;SDS011;45933;51.336;12.612;2022-10-22T08:41:15;3.22;;;2.40;;
60060;SDS011;45933;51.336;12.612;2022-10-22T08:43:58;3.78;;;1.85;;
60060;SDS011;45933;51.336;12.612;2022-10-22T08:46:38;2.45;;;1.70;;
60060;SDS011;45933;51.336;12.612;2022-10-22T08:49:18;2.38;;;1.65;;
60060;SDS011;45933;51.336;12.612;2022-10-22T08:51:45;4.45;;;1.67;;
60060;SDS011;45933;51.336;12.612;2022-10-22T08:56:57;4.57;;;1.55;;
60060;SDS011;45933;51.336;12.612;2022-10-22T08:59:42;1.90;;;1.70;;
60060;SDS011;45933;51.336;12.612;2022-10-22T09:02:14;2.85;;;1.80;;
60060;SDS011;45933;51.336;12.612;2022-10-22T09:04:46;2.50;;;1.63;;
60060;SDS011;45933;51.336;12.612;2022-10-22T09:07:17;2.78;;;1.40;;
60060;SDS011;45933;51.336;12.612;2022-10-22T09:09:44;2.50;;;1.10;;
60060;SDS011;45933;51.336;12.612;2022-10-22T09:12:15;2.35;;;1.30;;
60060;SDS011;45933;51.336;12.612;2022-10-22T09:14:41;4.60;;;1.50;;
60060;SDS011;45933;51.336;12.612;2022-10-22T09:20:07;2.72;;;1.88;;
60060;SDS011;45933;51.336;12.612;2022-10-22T09:25:47;2.60;;;1.80;;
60060;SDS011;45933;51.336;12.612;2022-10-22T09:28:15;2.72;;;1.50;;
60060;SDS011;45933;51.336;12.612;2022-10-22T09:30:40;1.58;;;1.40;;
60060;SDS011;45933;51.336;12.612;2022-10-22T09:33:26;4.15;;;1.40;;
60060;SDS011;45933;51.336;12.612;2022-10-22T09:35:59;4.10;;;1.63;;
60060;SDS011;45933;51.336;12.612;2022-10-22T09:38:32;4.80;;;1.25;;
60060;SDS011;45933;51.336;12.612;2022-10-22T09:41:03;2.15;;;1.20;;
60060;SDS011;45933;51.336;12.612;2022-10-22T09:43:29;2.97;;;1.20;;
60060;SDS011;45933;51.336;12.612;2022-10-22T09:45:59;1.60;;;1.20;;
60060;SDS011;45933;51.336;12.612;2022-10-22T09:48:31;2.85;;;1.10;;
60060;SDS011;45933;51.336;12.612;2022-10-22T09:51:21;1.00;;;0.90;;
60060;SDS011;45933;51.336;12.612;2022-10-22T09:54:01;1.00;;;0.90;;
60060;SDS011;45933;51.336;12.612;2022-10-22T09:56:41;0.80;;;0.80;;
60060;SDS011;45933;51.336;12.612;2022-10-22T09:59:14;2.42;;;1.15;;
60060;SDS011;45933;51.336;12.612;2022-10-22T10:01:40;1.30;;;0.90;;
60060;SDS011;45933;51.336;12.612;2022-10-22T10:04:07;1.98;;;0.80;;
60060;SDS011;45933;51.336;12.612;2022-10-22T10:06:38;1.35;;;0.75;;
60060;SDS011;45933;51.336;12.612;2022-10-22T10:09:08;1.25;;;0.90;;
60060;SDS011;45933;51.336;12.612;2022-10-22T10:11:41;2.63;;;1.05;;
60060;SDS011;45933;51.336;12.612;2022-10-22T10:17:31;1.45;;;0.90;;
60060;SDS011;45933;51.336;12.612;2022-10-22T10:20:12;2.15;;;0.93;;
60060;SDS011;45933;51.336;12.612;2022-10-22T10:25:41;2.30;;;0.75;;
60060;SDS011;45933;51.336;12.612;2022-10-22T10:31:51;3.38;;;0.90;;
60060;SDS011;45933;51.336;12.612;2022-10-22T10:40:01;1.25;;;0.80;;
60060;SDS011;45933;51.336;12.612;2022-10-22T10:45:50;1.42;;;0.90;;
60060;SDS011;45933;51.336;12.612;2022-10-22T10:50:55;1.20;;;0.80;;
60060;SDS011;45933;51.336;12.612;2022-10-22T10:53:50;0.80;;;0.80;;
60060;SDS011;45933;51.336;12.612;2022-10-22T10:56:47;3.88;;;0.80;;
60060;SDS011;45933;51.336;12.612;2022-10-22T10:59:23;1.30;;;0.88;;
60060;SDS011;45933;51.336;12.612;2022-10-22T11:07:45;1.10;;;1.00;;
60060;SDS011;45933;51.336;12.612;2022-10-22T11:10:33;1.63;;;1.25;;
60060;SDS011;45933;51.336;12.612;2022-10-22T11:13:14;1.58;;;1.00;;
60060;SDS011;45933;51.336;12.612;2022-10-22T11:15:58;6.72;;;5.95;;
60060;SDS011;45933;51.336;12.612;2022-10-22T11:21:20;1.98;;;1.83;;
60060;SDS011;45933;51.336;12.612;2022-10-22T11:26:39;1.45;;;1.00;;
60060;SDS011;45933;51.336;12.612;2022-10-22T11:29:08;2.70;;;1.58;;
60060;SDS011;45933;51.336;12.612;2022-10-22T11:31:39;1.60;;;1.08;;
60060;SDS011;45933;51.336;12.612;2022-10-22T11:36:33;0.80;;;0.80;;
60060;SDS011;45933;51.336;12.612;2022-10-22T11:39:01;2.08;;;1.30;;
60060;SDS011;45933;51.336;12.612;2022-10-22T11:41:27;2.30;;;0.70;;
60060;SDS011;45933;51.336;12.612;2022-10-22T11:43:57;1.00;;;0.70;;
60060;SDS011;45933;51.336;12.612;2022-10-22T11:46:37;1.90;;;0.80;;
60060;SDS011;45933;51.336;12.612;2022-10-22T11:49:28;1.35;;;0.70;;
60060;SDS011;45933;51.336;12.612;2022-10-22T11:52:27;0.70;;;0.70;;
60060;SDS011;45933;51.336;12.612;2022-10-22T11:55:26;3.75;;;1.08;;
60060;SDS011;45933;51.336;12.612;2022-10-22T12:01:38;2.40;;;1.13;;
60060;SDS011;45933;51.336;12.612;2022-10-22T12:03:40;1.17;;;0.80;;
60060;SDS011;45933;51.336;12.612;2022-10-22T12:08:43;1.23;;;1.13;;
60060;SDS011;45933;51.336;12.612;2022-10-22T12:19:11;1.35;;;0.70;;
60060;SDS011;45933;51.336;12.612;2022-10-22T12:21:41;3.28;;;0.70;;
60060;SDS011;45933;51.336;12.612;2022-10-22T12:24:12;0.80;;;0.80;;
60060;SDS011;45933;51.336;12.612;2022-10-22T12:26:43;1.15;;;0.85;;
60060;SDS011;45933;51.336;12.612;2022-10-22T12:29:11;1.13;;;0.80;;
60060;SDS011;45933;51.336;12.612;2022-10-22T12:31:39;0.95;;;0.60;;
60060;SDS011;45933;51.336;12.612;2022-10-22T12:34:06;1.42;;;0.88;;
60060;SDS011;45933;51.336;12.612;2022-10-22T12:36:36;1.15;;;0.50;;
60060;SDS011;45933;51.336;12.612;2022-10-22T12:39:07;1.45;;;0.75;;
60060;SDS011;45933;51.336;12.612;2022-10-22T12:41:36;0.60;;;0.60;;
60060;SDS011;45933;51.336;12.612;2022-10-22T12:44:04;1.02;;;0.63;;
60060;SDS011;45933;51.336;12.612;2022-10-22T12:46:31;2.42;;;0.88;;
60060;SDS011;45933;51.336;12.612;2022-10-22T12:48:58;1.15;;;0.82;;
60060;SDS011;45933;51.336;12.612;2022-10-22T12:51:25;0.75;;;0.60;;
60060;SDS011;45933;51.336;12.612;2022-10-22T12:53:52;0.80;;;0.70;;
60060;SDS011;45933;51.336;12.612;2022-10-22T12:56:23;1.05;;;0.80;;
60060;SDS011;45933;51.336;12.612;2022-10-22T13:01:20;2.28;;;0.60;;
60060;SDS011;45933;51.336;12.612;2022-10-22T13:03:47;3.47;;;0.93;;
60060;SDS011;45933;51.336;12.612;2022-10-22T13:08:44;0.60;;;0.60;;
60060;SDS011;45933;51.336;12.612;2022-10-22T13:11:19;1.38;;;1.00;;
60060;SDS011;45933;51.336;12.612;2022-10-22T13:13:45;1.38;;;0.70;;
60060;SDS011;45933;51.336;12.612;2022-10-22T13:18:48;1.17;;;1.00;;
60060;SDS011;45933;51.336;12.612;2022-10-22T13:21:22;2.80;;;0.70;;
60060;SDS011;45933;51.336;12.612;2022-10-22T13:23:54;1.13;;;0.70;;
60060;SDS011;45933;51.336;12.612;2022-10-22T13:26:21;1.20;;;0.93;;
60060;SDS011;45933;51.336;12.612;2022-10-22T13:28:49;0.90;;;0.73;;
60060;SDS011;45933;51.336;12.612;2022-10-22T13:31:17;0.80;;;0.80;;
60060;SDS011;45933;51.336;12.612;2022-10-22T13:33:46;1.63;;;1.23;;
60060;SDS011;45933;51.336;12.612;2022-10-22T13:36:20;1.92;;;0.93;;
60060;SDS011;45933;51.336;12.612;2022-10-22T13:38:46;0.80;;;0.80;;
60060;SDS011;45933;51.336;12.612;2022-10-22T13:43:51;7.20;;;1.15;;
60060;SDS011;45933;51.336;12.612;2022-10-22T13:46:17;1.08;;;0.85;;
60060;SDS011;45933;51.336;12.612;2022-10-22T13:48:44;1.80;;;0.80;;
60060;SDS011;45933;51.336;12.612;2022-10-22T13:51:31;2.50;;;0.90;;
60060;SDS011;45933;51.336;12.612;2022-10-22T13:54:01;2.35;;;0.80;;
60060;SDS011;45933;51.336;12.612;2022-10-22T13:56:28;1.48;;;0.90;;
60060;SDS011;45933;51.336;12.612;2022-10-22T13:58:53;1.52;;;0.90;;
60060;SDS011;45933;51.336;12.612;2022-10-22T14:01:19;0.95;;;0.80;;
60060;SDS011;45933;51.336;12.612;2022-10-22T14:03:48;1.83;;;0.98;;
60060;SDS011;45933;51.336;12.612;2022-10-22T14:06:15;0.95;;;0.60;;
60060;SDS011;45933;51.336;12.612;2022-10-22T14:08:43;2.20;;;1.30;;
60060;SDS011;45933;51.336;12.612;2022-10-22T14:11:10;1.17;;;0.73;;
60060;SDS011;45933;51.336;12.612;2022-10-22T14:13:36;1.20;;;1.00;;
60060;SDS011;45933;51.336;12.612;2022-10-22T14:16:02;1.58;;;0.80;;
60060;SDS011;45933;51.336;12.612;2022-10-22T14:18:30;2.05;;;1.00;;
60060;SDS011;45933;51.336;12.612;2022-10-22T14:20:58;2.17;;;0.80;;
60060;SDS011;45933;51.336;12.612;2022-10-22T14:23:26;2.00;;;1.00;;
60060;SDS011;45933;51.336;12.612;2022-10-22T14:25:53;2.72;;;1.10;;
60060;SDS011;45933;51.336;12.612;2022-10-22T14:28:19;1.02;;;0.93;;
60060;SDS011;45933;51.336;12.612;2022-10-22T14:30:44;1.83;;;0.80;;
60060;SDS011;45933;51.336;12.612;2022-10-22T14:33:16;2.38;;;1.05;;
60060;SDS011;45933;51.336;12.612;2022-10-22T14:35:44;1.25;;;1.08;;
60060;SDS011;45933;51.336;12.612;2022-10-22T14:38:09;1.25;;;0.85;;
60060;SDS011;45933;51.336;12.612;2022-10-22T14:40:35;4.45;;;1.38;;
60060;SDS011;45933;51.336;12.612;2022-10-22T14:43:04;1.92;;;1.08;;
60060;SDS011;45933;51.336;12.612;2022-10-22T14:45:29;2.60;;;1.60;;
60060;SDS011;45933;51.336;12.612;2022-10-22T14:47:54;3.05;;;1.73;;
60060;SDS011;45933;51.336;12.612;2022-10-22T14:50:21;3.22;;;1.48;;
60060;SDS011;45933;51.336;12.612;2022-10-22T14:52:48;2.05;;;1.73;;
60060;SDS011;45933;51.336;12.612;2022-10-22T14:55:14;3.33;;;2.10;;
60060;SDS011;45933;51.336;12.612;2022-10-22T14:57:41;2.70;;;1.70;;
60060;SDS011;45933;51.336;12.612;2022-10-22T15:00:08;3.55;;;1.50;;
60060;SDS011;45933;51.336;12.612;2022-10-22T15:02:41;2.50;;;1.30;;
60060;SDS011;45933;51.336;12.612;2022-10-22T15:05:06;2.65;;;1.60;;
60060;SDS011;45933;51.336;12.612;2022-10-22T15:07:32;3.50;;;1.50;;
60060;SDS011;45933;51.336;12.612;2022-10-22T15:09:57;2.22;;;1.42;;
60060;SDS011;45933;51.336;12.612;2022-10-22T15:12:23;2.83;;;1.25;;
60060;SDS011;45933;51.336;12.612;2022-10-22T15:14:48;1.42;;;1.25;;
60060;SDS011;45933;51.336;12.612;2022-10-22T15:17:14;1.85;;;1.20;;
60060;SDS011;45933;51.336;12.612;2022-10-22T15:19:40;4.82;;;1.73;;
60060;SDS011;45933;51.336;12.612;2022-10-22T15:22:07;2.45;;;1.27;;
60060;SDS011;45933;51.336;12.612;2022-10-22T15:24:33;3.05;;;1.67;;
60060;SDS011;45933;51.336;12.612;2022-10-22T15:26:58;5.10;;;1.92;;
60060;SDS011;45933;51.336;12.612;2022-10-22T15:29:24;5.43;;;2.00;;
60060;SDS011;45933;51.336;12.612;2022-10-22T15:31:50;6.28;;;2.42;;
60060;SDS011;45933;51.336;12.612;2022-10-22T15:34:22;3.22;;;2.10;;
60060;SDS011;45933;51.336;12.612;2022-10-22T15:36:49;2.60;;;2.05;;
60060;SDS011;45933;51.336;12.612;2022-10-22T15:39:15;4.18;;;3.13;;
60060;SDS011;45933;51.336;12.612;2022-10-22T15:41:41;5.88;;;3.28;;
60060;SDS011;45933;51.336;12.612;2022-10-22T15:44:06;5.50;;;3.08;;
60060;SDS011;45933;51.336;12.612;2022-10-22T15:46:33;3.97;;;2.35;;
60060;SDS011;45933;51.336;12.612;2022-10-22T15:48:59;5.97;;;2.53;;
60060;SDS011;45933;51.336;12.612;2022-10-22T15:51:25;5.68;;;2.90;;
60060;SDS011;45933;51.336;12.612;2022-10-22T15:53:51;4.90;;;3.05;;
60060;SDS011;45933;51.336;12.612;2022-10-22T15:56:18;8.68;;;3.22;;
60060;SDS011;45933;51.336;12.612;2022-10-22T15:58:43;4.47;;;2.67;;
60060;SDS011;45933;51.336;12.612;2022-10-22T16:01:09;4.95;;;2.47;;
60060;SDS011;45933;51.336;12.612;2022-10-22T16:03:37;3.92;;;2.20;;
60060;SDS011;45933;51.336;12.612;2022-10-22T16:06:02;7.75;;;2.30;;
60060;SDS011;45933;51.336;12.612;2022-10-22T16:08:29;4.20;;;2.30;;
60060;SDS011;45933;51.336;12.612;2022-10-22T16:10:54;5.28;;;2.20;;
60060;SDS011;45933;51.336;12.612;2022-10-22T16:13:20;3.28;;;2.28;;
60060;SDS011;45933;51.336;12.612;2022-10-22T16:15:48;5.43;;;2.50;;
60060;SDS011;45933;51.336;12.612;2022-10-22T16:18:13;5.20;;;3.10;;